createdAt,value
2019-02-08T00:03:57.351Z,8.56
2019-02-08T00:09:06.307Z,8.78
2019-02-08T00:14:15.253Z,8.94
2019-02-08T00:19:24.202Z,10.69
2019-02-08T00:24:33.178Z,7.14
2019-02-08T00:29:42.131Z,7.64
2019-02-08T00:34:51.078Z,7.87
2019-02-08T00:40:00.007Z,9.10
2019-02-08T00:45:09.038Z,8.81
2019-02-08T00:50:17.954Z,8.79
2019-02-08T00:55:26.973Z,10.03
2019-02-08T01:00:35.922Z,9.15
2019-02-08T01:05:44.928Z,7.87
2019-02-08T01:10:53.846Z,8.42
2019-02-08T01:16:02.810Z,11.14
2019-02-08T01:21:11.754Z,8.62
2019-02-08T01:26:20.703Z,7.50
2019-02-08T01:31:29.634Z,7.52
2019-02-08T01:36:38.605Z,9.44
2019-02-08T01:41:47.576Z,8.24
2019-02-08T01:46:56.594Z,7.35
2019-02-08T01:52:05.514Z,8.34
2019-02-08T01:57:14.516Z,10.05
2019-02-08T02:02:23.494Z,8.81
2019-02-08T02:07:32.467Z,8.34
2019-02-08T02:12:41.422Z,7.16
2019-02-08T02:17:50.462Z,8.51
2019-02-08T02:22:59.370Z,8.65
2019-02-08T02:28:08.350Z,9.35
2019-02-08T02:33:17.303Z,9.62
2019-02-08T02:38:26.246Z,7.21
2019-02-08T02:43:35.186Z,9.27
2019-02-08T02:48:44.146Z,10.03
2019-02-08T02:53:53.090Z,7.78
2019-02-08T02:59:02.083Z,10.00
2019-02-08T03:04:11.029Z,9.27
2019-02-08T03:09:19.990Z,9.49
2019-02-08T03:14:28.949Z,10.32
2019-02-08T03:19:37.931Z,9.71
2019-02-08T03:24:46.866Z,11.94
2019-02-08T03:29:55.837Z,7.23
2019-02-08T03:35:04.782Z,9.61
2019-02-08T03:40:13.757Z,11.25
2019-02-08T03:45:22.702Z,10.35
2019-02-08T03:50:31.675Z,8.71
2019-02-08T03:55:40.599Z,9.70
2019-02-08T04:00:49.614Z,10.25
2019-02-08T04:05:58.559Z,14.51
2019-02-08T04:11:07.522Z,10.72
2019-02-08T04:16:16.474Z,12.05
2019-02-08T04:21:25.430Z,12.08
2019-02-08T04:26:35.282Z,11.14
2019-02-08T04:31:42.926Z,11.33
2019-02-08T04:36:51.853Z,12.93
2019-02-08T04:42:00.906Z,13.12
2019-02-08T04:47:09.858Z,13.64
2019-02-08T04:52:18.828Z,10.21
2019-02-08T04:57:27.778Z,12.91
2019-02-08T05:02:36.722Z,13.58
2019-02-08T05:07:45.661Z,13.51
2019-02-08T05:12:54.653Z,13.27
2019-02-08T05:18:03.604Z,12.75
2019-02-08T05:23:12.546Z,12.53
2019-02-08T05:28:21.504Z,11.94
2019-02-08T05:33:30.473Z,16.01
2019-02-08T05:38:39.426Z,12.24
2019-02-08T05:43:48.459Z,14.24
2019-02-08T05:48:57.415Z,12.79
2019-02-08T05:54:06.402Z,15.51
2019-02-08T05:59:15.346Z,16.10
2019-02-08T06:04:24.392Z,14.70
2019-02-08T06:09:33.339Z,16.43
2019-02-08T06:14:42.283Z,17.01
2019-02-08T06:19:51.236Z,16.03
2019-02-08T06:25:03.732Z,17.50
2019-02-08T06:30:08.674Z,17.42
2019-02-08T06:35:17.653Z,16.34
2019-02-08T06:40:26.595Z,15.00
2019-02-08T06:45:35.570Z,15.77
2019-02-08T06:50:44.505Z,14.68
2019-02-08T06:55:53.882Z,16.38
2019-02-08T07:01:01.992Z,18.66
2019-02-08T07:06:11.002Z,16.80
2019-02-08T07:11:19.946Z,17.80
2019-02-08T07:16:28.986Z,20.08
2019-02-08T07:21:37.930Z,17.08
2019-02-08T07:26:46.892Z,18.78
2019-02-08T07:31:55.824Z,18.33
2019-02-08T07:37:04.942Z,19.57
2019-02-08T07:42:13.874Z,17.28
2019-02-08T07:47:22.878Z,17.23
2019-02-08T07:52:31.830Z,16.36
2019-02-08T07:57:40.778Z,19.24
2019-02-08T08:02:49.714Z,18.36
2019-02-08T08:08:00.325Z,16.09
2019-02-08T08:13:07.147Z,20.86
2019-02-08T08:18:16.170Z,16.97
2019-02-08T08:23:25.110Z,16.07
2019-02-08T08:28:34.079Z,17.02
2019-02-08T08:33:43.044Z,14.53
2019-02-08T08:38:52.002Z,14.54
2019-02-08T08:44:00.939Z,13.97
2019-02-08T08:49:09.979Z,10.19
2019-02-08T08:54:18.919Z,11.29
2019-02-08T08:59:29.301Z,11.52
2019-02-08T09:04:36.326Z,11.72
2019-02-08T09:09:45.435Z,11.58
2019-02-08T09:14:54.390Z,11.70
2019-02-08T09:20:03.363Z,12.11
2019-02-08T09:25:12.322Z,12.76
2019-02-08T09:30:21.318Z,11.28
2019-02-08T09:35:30.263Z,10.19
2019-02-08T09:40:39.246Z,9.04
2019-02-08T09:45:48.182Z,8.56
2019-02-08T09:50:57.161Z,9.51
2019-02-08T09:56:06.118Z,8.36
2019-02-08T10:01:15.094Z,9.82
2019-02-08T10:06:24.054Z,8.71
2019-02-08T10:11:33.042Z,10.36
2019-02-08T10:16:41.995Z,8.34
2019-02-08T10:21:50.990Z,8.00
2019-02-08T10:26:59.958Z,8.74
2019-02-08T10:32:08.998Z,6.55
2019-02-08T10:37:17.934Z,7.08
2019-02-08T10:42:26.915Z,5.78
2019-02-08T10:47:36.186Z,7.04
2019-02-08T10:52:45.174Z,5.11
2019-02-08T10:57:54.142Z,7.89
2019-02-08T11:03:03.183Z,7.64
2019-02-08T11:08:12.130Z,7.37
2019-02-08T11:13:21.145Z,7.15
2019-02-08T11:18:30.098Z,4.81
2019-02-08T11:23:39.137Z,4.94
2019-02-08T11:28:48.098Z,6.31
2019-02-08T11:33:57.075Z,5.04
2019-02-08T11:39:06.007Z,5.21
2019-02-08T11:44:15.110Z,7.76
2019-02-08T11:49:24.074Z,5.64
2019-02-08T11:54:33.102Z,5.71
2019-02-08T11:59:42.059Z,5.97
2019-02-08T12:04:51.185Z,4.19
2019-02-08T12:10:00.207Z,6.67
2019-02-08T12:15:09.110Z,8.47
2019-02-08T12:20:18.038Z,7.77
2019-02-08T12:25:27.046Z,5.51
2019-02-08T12:30:36.004Z,7.53
2019-02-08T12:35:44.999Z,6.92
2019-02-08T12:40:53.950Z,8.48
2019-02-08T12:46:02.942Z,8.84
2019-02-08T12:51:11.894Z,7.22
2019-02-08T12:56:20.851Z,7.65
2019-02-08T13:01:37.372Z,7.95
2019-02-08T13:06:38.365Z,6.40
2019-02-08T13:11:47.330Z,7.78
2019-02-08T13:16:56.307Z,8.62
2019-02-08T13:22:05.294Z,7.63
2019-02-08T13:27:14.268Z,7.61
2019-02-08T13:32:23.234Z,8.70
2019-02-08T13:37:32.186Z,10.10
2019-02-08T13:42:41.159Z,7.19
2019-02-08T13:47:50.118Z,8.75
2019-02-08T13:52:59.189Z,9.02
2019-02-08T13:58:08.149Z,7.23
2019-02-08T14:03:17.150Z,7.00
2019-02-08T14:08:26.118Z,9.28
2019-02-08T14:13:40.469Z,8.09
2019-02-08T14:18:43.550Z,6.57
2019-02-08T14:23:52.551Z,8.12
2019-02-08T14:29:01.530Z,7.07
2019-02-08T14:34:10.478Z,9.21
2019-02-08T14:39:19.534Z,8.97
2019-02-08T14:44:28.486Z,9.30
2019-02-08T14:49:37.458Z,6.86
2019-02-08T14:54:46.415Z,5.58
2019-02-08T14:59:55.410Z,6.09
2019-02-08T15:05:04.366Z,6.76
2019-02-08T15:10:13.350Z,6.67
2019-02-08T15:15:22.318Z,6.28
2019-02-08T15:20:31.310Z,7.36
2019-02-08T15:25:40.246Z,6.25
2019-02-08T15:30:49.254Z,8.24
2019-02-08T15:35:58.194Z,5.93
2019-02-08T15:41:07.158Z,9.13
2019-02-08T15:46:16.121Z,6.63
2019-02-08T15:51:25.114Z,6.23
2019-02-08T15:56:34.074Z,5.44
2019-02-08T16:01:43.034Z,7.70
2019-02-08T16:06:51.995Z,5.95
2019-02-08T16:12:01.236Z,6.61
2019-02-08T16:17:10.190Z,7.61
2019-02-08T16:22:19.182Z,5.81
2019-02-08T16:27:28.154Z,5.60
2019-02-08T16:32:37.098Z,6.67
2019-02-08T16:37:46.062Z,5.75
2019-02-08T16:42:55.013Z,5.63
2019-02-08T16:48:03.979Z,5.49
2019-02-08T16:53:12.921Z,5.47
2019-02-08T16:58:21.871Z,6.28
2019-02-08T17:03:30.814Z,6.23
2019-02-08T17:08:39.826Z,5.33
2019-02-08T17:13:48.760Z,7.60
2019-02-08T17:18:57.745Z,6.96
2019-02-08T17:24:06.678Z,6.32
2019-02-08T17:29:15.691Z,5.51
2019-02-08T17:34:24.651Z,7.61
2019-02-08T17:39:33.668Z,5.14
2019-02-08T17:44:42.623Z,6.37
2019-02-08T17:49:51.630Z,7.27
2019-02-08T17:55:00.579Z,7.36
2019-02-08T18:00:09.563Z,5.69
2019-02-08T18:05:18.526Z,6.34
2019-02-08T18:10:27.546Z,6.32
2019-02-08T18:15:36.501Z,7.54
2019-02-08T18:20:45.454Z,7.53
2019-02-08T18:25:54.413Z,6.63
2019-02-08T18:31:03.359Z,5.72
2019-02-08T18:36:12.322Z,5.89
2019-02-08T18:41:21.248Z,5.44
2019-02-08T18:46:30.217Z,6.68
2019-02-08T18:51:39.166Z,5.75
2019-02-08T18:56:48.173Z,6.34
2019-02-08T19:01:57.112Z,6.06
2019-02-08T19:07:06.100Z,7.00
2019-02-08T19:12:15.037Z,5.91
2019-02-08T19:17:24.014Z,6.09
2019-02-08T19:22:32.962Z,6.33
2019-02-08T19:27:41.938Z,6.96
2019-02-08T19:32:50.875Z,8.29
2019-02-08T19:37:59.843Z,8.68
2019-02-08T19:43:08.782Z,6.16
2019-02-08T19:48:17.803Z,8.73
2019-02-08T19:53:26.758Z,8.24
2019-02-08T19:58:36.059Z,8.28
2019-02-08T20:03:45.054Z,11.76
2019-02-08T20:08:53.994Z,9.47
2019-02-08T20:14:02.995Z,7.02
2019-02-08T20:19:11.938Z,7.60
2019-02-08T20:24:20.914Z,9.35
2019-02-08T20:29:29.886Z,8.63
2019-02-08T20:34:38.846Z,10.23
2019-02-08T20:39:47.919Z,7.56
2019-02-08T20:44:56.766Z,7.20
2019-02-08T20:50:05.726Z,10.08
2019-02-08T20:55:14.714Z,8.04
2019-02-08T21:00:25.862Z,11.00
2019-02-08T21:05:24.819Z,10.66
2019-02-08T21:10:33.778Z,8.93
2019-02-08T21:15:42.725Z,8.04
2019-02-08T21:20:51.690Z,10.29
2019-02-08T21:26:00.630Z,8.29
2019-02-08T21:31:09.620Z,8.08
2019-02-08T21:36:20.768Z,11.11
2019-02-08T21:41:19.739Z,11.17
2019-02-08T21:46:28.688Z,9.87
2019-02-08T21:51:37.663Z,9.64
2019-02-08T21:56:46.616Z,9.96
2019-02-08T22:01:55.574Z,9.72
2019-02-08T22:07:04.518Z,10.97
2019-02-08T22:12:13.498Z,10.91
2019-02-08T22:17:22.443Z,10.85
2019-02-08T22:22:31.406Z,11.57
2019-02-08T22:27:40.366Z,10.81
2019-02-08T22:32:49.406Z,10.93
2019-02-08T22:37:58.355Z,12.40
2019-02-08T22:43:07.390Z,13.48
2019-02-08T22:48:16.400Z,11.38
2019-02-08T22:53:25.311Z,13.24
2019-02-08T22:58:34.279Z,8.67
2019-02-08T23:03:43.307Z,11.06
2019-02-08T23:08:52.249Z,9.26
2019-02-08T23:14:01.218Z,9.25
2019-02-08T23:19:10.157Z,8.61
2019-02-08T23:24:19.179Z,8.92
2019-02-08T23:29:30.323Z,8.76
2019-02-08T23:34:36.619Z,8.92
2019-02-08T23:39:45.570Z,9.26
2019-02-08T23:44:54.575Z,6.66
2019-02-08T23:50:03.482Z,9.76
2019-02-08T23:55:12.534Z,8.23
